Time;durP1;ratioP1;P1;durP2;ratioP2;P2;SDS_P1;SDS_P2;PMS_P1;PMS_P2;Temp;Humidity;BMP_temperature;BMP_pressure;BME280_temperature;BME280_humidity;BME280_pressure;Samples;Min_cycle;Max_cycle;Signal;HPM_P1;HPM_P2
2021/07/27 04:58:03;;;;;;;17.50;15.20;;;;;;;20.08;99.60;98589.20;125174;1090;64715;-75
2021/07/27 05:00:31;;;;;;;15.60;13.83;;;;;;;20.16;99.37;98604.58;125024;1092;64188;-75
2021/07/27 05:02:58;;;;;;;14.63;12.90;;;;;;;20.28;99.40;98629.42;125027;1093;64274;-75
2021/07/27 05:05:26;;;;;;;15.70;12.53;;;;;;;20.32;99.55;98634.28;125021;1093;64268;-75
2021/07/27 05:07:53;;;;;;;13.45;12.15;;;;;;;20.36;98.42;98648.34;125048;1093;64373;-75
2021/07/27 05:10:20;;;;;;;12.47;11.33;;;;;;;20.43;98.32;98659.30;125045;1093;64242;-75
2021/07/27 05:12:47;;;;;;;12.27;11.00;;;;;;;20.43;98.11;98656.59;125065;1092;64387;-75
2021/07/27 05:15:15;;;;;;;13.20;11.23;;;;;;;20.43;98.01;98664.71;124994;1093;64298;-76
2021/07/27 05:17:46;;;;;;;11.47;10.37;;;;;;;20.41;98.25;98664.91;125031;1093;64306;-76
2021/07/27 05:20:13;;;;;;;12.30;11.00;;;;;;;20.39;97.72;98656.94;125039;1093;64265;-75
2021/07/27 05:22:40;;;;;;;12.33;11.13;;;;;;;20.61;97.27;98665.36;125035;1093;64325;-75
2021/07/27 05:25:08;;;;;;;12.47;11.10;;;;;;;20.68;96.83;98657.39;125029;1092;64358;-75
2021/07/27 05:27:36;;;;;;;14.37;11.87;;;;;;;20.67;96.97;98667.39;125064;1092;64337;-76
2021/07/27 05:30:04;;;;;;;15.17;13.63;;;;;;;20.75;96.99;98656.52;125027;1093;64282;-76
2021/07/27 05:32:31;;;;;;;13.57;12.20;;;;;;;20.82;96.39;98662.05;125093;1093;64294;-75
2021/07/27 05:34:58;;;;;;;15.63;14.03;;;;;;;20.92;96.16;98664.56;125014;1093;64270;-76
2021/07/27 05:37:25;;;;;;;16.87;15.17;;;;;;;21.04;96.61;98666.70;125030;1093;64297;-76
2021/07/27 05:39:53;;;;;;;16.23;14.63;;;;;;;21.12;96.04;98670.39;125038;1092;64264;-76
2021/07/27 05:42:20;;;;;;;16.53;14.93;;;;;;;21.14;95.75;98671.88;125036;1092;64303;-76
2021/07/27 05:44:47;;;;;;;15.43;14.03;;;;;;;21.15;95.33;98681.71;125049;1092;64338;-75
2021/07/27 05:47:14;;;;;;;15.37;13.97;;;;;;;21.16;95.73;98675.26;125045;1093;64223;-75
2021/07/27 05:49:42;;;;;;;15.83;14.43;;;;;;;21.19;95.47;98677.60;124994;1093;64386;-75
2021/07/27 05:52:12;;;;;;;16.37;14.73;;;;;;;21.25;95.66;98679.63;125028;1093;64265;-75
2021/07/27 05:54:40;;;;;;;16.80;14.23;;;;;;;21.43;95.32;98682.09;124995;1092;64268;-75
2021/07/27 05:57:15;;;;;;;14.57;13.07;;;;;;;21.53;94.95;98684.53;125073;1093;64211;-75
2021/07/27 05:59:42;;;;;;;17.07;14.37;;;;;;;21.62;94.83;98690.77;125118;1093;64342;-75
2021/07/27 06:02:15;;;;;;;15.85;14.25;;;;;;;21.69;94.48;98683.58;125087;1092;64284;-75
2021/07/27 06:04:43;;;;;;;17.50;15.50;;;;;;;21.81;94.15;98682.13;125236;1093;64229;-75
2021/07/27 06:07:10;;;;;;;16.60;14.83;;;;;;;22.03;94.41;98693.13;124996;1092;64184;-75
2021/07/27 06:09:37;;;;;;;15.70;14.17;;;;;;;22.19;93.71;98693.00;125001;1093;64406;-76
2021/07/27 06:12:07;;;;;;;15.90;14.27;;;;;;;22.22;92.94;98695.38;125010;1092;64746;-76
2021/07/27 06:14:34;;;;;;;16.53;14.90;;;;;;;22.21;92.72;98696.38;124999;1093;64268;-76
2021/07/27 06:17:01;;;;;;;16.80;15.10;;;;;;;22.14;92.20;98696.27;124996;1093;64220;-76
2021/07/27 06:19:29;;;;;;;16.50;15.00;;;;;;;22.07;92.40;98698.02;125030;1093;64272;-76
2021/07/27 06:21:56;;;;;;;17.33;15.63;;;;;;;21.99;92.27;98702.68;125003;1092;64265;-76
2021/07/27 06:24:23;;;;;;;19.07;17.00;;;;;;;21.99;92.70;98705.39;125030;1093;64348;-76
2021/07/27 06:26:50;;;;;;;19.53;16.63;;;;;;;22.03;92.90;98707.53;125010;1093;64188;-76
2021/07/27 06:29:17;;;;;;;17.67;16.07;;;;;;;22.09;92.79;98698.68;125031;1093;64361;-76
2021/07/27 06:31:44;;;;;;;18.30;16.47;;;;;;;22.14;92.76;98709.83;124996;1092;64309;-76
2021/07/27 06:34:11;;;;;;;17.87;16.17;;;;;;;22.20;92.37;98713.71;124971;1093;64310;-76
2021/07/27 06:36:39;;;;;;;17.70;16.00;;;;;;;22.28;92.11;98708.20;125017;1092;64236;-76
2021/07/27 06:39:06;;;;;;;18.40;16.40;;;;;;;22.39;91.69;98716.92;125032;1092;64296;-76
2021/07/27 06:41:33;;;;;;;18.87;17.03;;;;;;;22.58;91.61;98717.20;125016;1093;64338;-76
2021/07/27 06:44:00;;;;;;;19.73;17.70;;;;;;;22.82;91.11;98717.13;125038;1093;64281;-76
2021/07/27 06:46:28;;;;;;;19.80;17.87;;;;;;;23.05;90.53;98730.64;125049;1093;64171;-76
2021/07/27 06:48:57;;;;;;;18.13;16.43;;;;;;;23.22;89.61;98724.81;125132;1093;64364;-76
2021/07/27 06:51:25;;;;;;;18.23;16.53;;;;;;;23.39;88.89;98730.02;125089;1090;64300;-76
2021/07/27 06:53:52;;;;;;;18.30;16.50;;;;;;;23.59;88.54;98727.50;125062;1090;64364;-76
2021/07/27 06:56:19;;;;;;;17.20;15.70;;;;;;;23.97;87.81;98736.30;125012;1091;64236;-76
2021/07/27 06:58:47;;;;;;;18.00;16.20;;;;;;;24.15;87.20;98740.45;125007;1090;64380;-76
2021/07/27 07:01:15;;;;;;;17.77;16.23;;;;;;;24.42;85.93;98747.78;125014;1090;64309;-75
2021/07/27 07:03:43;;;;;;;17.10;15.60;;;;;;;24.83;85.00;98752.52;125040;1089;64207;-76
2021/07/27 07:06:16;;;;;;;17.40;15.80;;;;;;;25.16;83.94;98757.33;125067;1090;64285;-76
2021/07/27 07:08:43;;;;;;;16.83;15.13;;;;;;;25.30;82.32;98759.05;125033;1090;64284;-76
2021/07/27 07:11:13;;;;;;;16.70;15.20;;;;;;;25.38;82.11;98753.45;124990;1090;64284;-76
2021/07/27 07:13:40;;;;;;;18.73;17.10;;;;;;;25.22;82.45;98766.58;125056;1090;64338;-78
2021/07/27 07:16:09;;;;;;;17.80;16.00;;;;;;;24.94;82.38;98768.30;125031;1090;64348;-78
2021/07/27 07:18:36;;;;;;;18.67;16.97;;;;;;;24.68;82.60;98768.13;125044;1090;64281;-78
2021/07/27 07:21:05;;;;;;;19.80;18.00;;;;;;;24.41;82.50;98780.66;125016;1090;64284;-78
2021/07/27 07:23:35;;;;;;;18.93;17.30;;;;;;;24.19;83.54;98775.23;125054;1090;64318;-78
2021/07/27 07:26:04;;;;;;;17.68;16.10;;;;;;;24.06;83.39;98770.51;125147;1090;64280;-78
2021/07/27 07:28:32;;;;;;;16.85;15.25;;;;;;;23.99;83.49;98775.06;125128;1090;64291;-78
2021/07/27 07:30:59;;;;;;;17.05;15.55;;;;;;;23.87;83.51;98779.33;125099;1090;64364;-78
2021/07/27 07:33:27;;;;;;;16.73;15.07;;;;;;;23.87;83.56;98776.61;125110;1088;64283;-78
2021/07/27 07:35:54;;;;;;;17.40;15.80;;;;;;;23.98;83.42;98772.53;125030;1090;64416;-78
2021/07/27 07:38:21;;;;;;;17.50;15.93;;;;;;;24.10;83.15;98779.98;125073;1090;64399;-78
2021/07/27 07:40:48;;;;;;;18.57;16.70;;;;;;;24.29;82.72;98773.03;125045;1090;64241;-78
2021/07/27 07:43:16;;;;;;;19.60;17.80;;;;;;;24.49;82.84;98773.23;125077;1090;64178;-78
2021/07/27 07:45:43;;;;;;;20.65;18.85;;;;;;;24.83;82.67;98762.55;125049;1089;64309;-78
2021/07/27 07:48:10;;;;;;;20.17;18.43;;;;;;;25.22;81.77;98764.69;125023;1090;64442;-77
2021/07/27 07:50:37;;;;;;;20.53;18.70;;;;;;;25.43;81.16;98755.55;125021;1090;64399;-78
2021/07/27 07:53:04;;;;;;;21.83;19.40;;;;;;;25.50;80.26;98761.88;125021;1090;64295;-77
2021/07/27 07:55:32;;;;;;;21.15;19.25;;;;;;;25.60;80.04;98761.50;125040;1090;64284;-77
2021/07/27 07:58:01;;;;;;;18.90;17.10;;;;;;;25.70;79.61;98772.87;125060;1088;64274;-77
2021/07/27 08:00:28;;;;;;;19.80;17.97;;;;;;;25.85;79.11;98778.17;125078;1089;64383;-77
2021/07/27 08:02:55;;;;;;;20.03;18.30;;;;;;;25.91;78.29;98774.63;125038;1090;64369;-77
2021/07/27 08:05:23;;;;;;;19.97;18.03;;;;;;;25.99;78.05;98782.63;125056;1089;64290;-77
2021/07/27 08:07:50;;;;;;;21.67;19.73;;;;;;;26.14;77.71;98774.22;125043;1090;64244;-78
2021/07/27 08:10:17;;;;;;;20.70;18.60;;;;;;;26.18;76.94;98782.86;125025;1090;64265;-78
2021/07/27 08:12:47;;;;;;;23.35;20.95;;;;;;;26.24;77.48;98780.13;124991;1090;64265;-77
2021/07/27 08:15:16;;;;;;;20.45;18.50;;;;;;;26.32;77.13;98789.17;125074;1090;64284;-78
2021/07/27 08:17:43;;;;;;;19.37;17.47;;;;;;;26.35;76.86;98783.28;125047;1090;64281;-78
2021/07/27 08:20:12;;;;;;;18.00;16.35;;;;;;;26.42;76.64;98795.06;125166;1089;64300;-77
2021/07/27 08:22:40;;;;;;;17.23;15.70;;;;;;;26.62;76.53;98797.81;125025;1090;64184;-79
2021/07/27 08:25:15;;;;;;;17.33;15.83;;;;;;;26.72;75.53;98798.23;125000;1090;64296;-76
2021/07/27 08:27:43;;;;;;;16.30;14.83;;;;;;;26.64;74.89;98810.22;125025;1090;64321;-78
2021/07/27 08:30:13;;;;;;;17.20;15.80;;;;;;;26.48;75.51;98819.64;125048;1090;64191;-78
2021/07/27 08:32:51;;;;;;;17.37;15.83;;;;;;;26.37;75.57;98817.55;125059;1089;64284;-78
2021/07/27 08:35:21;;;;;;;16.77;15.23;;;;;;;26.36;75.19;98821.34;125050;1089;64380;-78
2021/07/27 08:37:49;;;;;;;18.20;16.70;;;;;;;26.38;75.44;98812.91;125039;1090;64272;-78
2021/07/27 08:40:19;;;;;;;17.30;15.80;;;;;;;26.50;75.26;98814.81;125075;1090;64273;-78
2021/07/27 08:42:47;;;;;;;17.88;16.38;;;;;;;26.71;74.55;98816.53;125104;1089;64376;-78
2021/07/27 08:45:15;;;;;;;18.03;16.43;;;;;;;27.00;74.64;98811.66;125116;1088;64290;-83
2021/07/27 08:48:09;;;;;;;19.27;17.47;;;;;;;27.20;74.07;98817.13;125683;1093;64303;-90
2021/07/27 08:50:38;;;;;;;19.13;17.33;;;;;;;27.42;72.88;98820.42;125131;1093;64389;-90
2021/07/27 08:53:05;;;;;;;19.47;17.83;;;;;;;27.53;72.43;98822.48;125275;1093;64178;-92
2021/07/27 08:55:32;;;;;;;19.93;18.23;;;;;;;27.31;71.61;98818.36;125079;1092;64392;-82
2021/07/27 08:58:01;;;;;;;18.20;16.50;;;;;;;27.20;72.02;98814.39;125423;1093;64364;-95
2021/07/27 09:00:30;;;;;;;19.43;17.83;;;;;;;27.08;72.03;98822.38;125083;1092;64270;-89
2021/07/27 09:03:13;;;;;;;19.23;17.28;;;;;;;26.88;72.13;98821.55;125264;1093;64267;-88
2021/07/27 09:05:40;;;;;;;17.60;15.83;;;;;;;26.70;72.27;98822.23;125289;1093;64434;-89
2021/07/27 09:08:09;;;;;;;17.83;16.23;;;;;;;26.62;72.31;98823.28;125052;1091;64305;-88
2021/07/27 09:10:38;;;;;;;19.17;17.57;;;;;;;26.63;73.41;98821.38;125080;1092;64213;-87
2021/07/27 09:13:11;;;;;;;;;;;;;;;26.78;72.90;98823.88;125185;1093;64319;-87
2021/07/27 09:15:44;;;;;;;19.73;17.87;;;;;;;26.68;72.88;98832.52;125118;1093;64355;-89
2021/07/27 09:18:18;;;;;;;20.57;18.50;;;;;;;26.58;72.82;98832.94;125177;1093;64361;-88
2021/07/27 09:20:50;;;;;;;19.87;17.73;;;;;;;26.64;72.97;98832.09;125073;1092;64300;-89
2021/07/27 09:23:20;;;;;;;18.65;16.95;;;;;;;26.72;72.91;98836.50;125101;1091;64299;-93
2021/07/27 09:25:52;;;;;;;16.70;15.17;;;;;;;26.69;72.74;98832.30;125089;1093;64188;-89
2021/07/27 09:28:21;;;;;;;17.77;16.07;;;;;;;26.74;72.23;98833.57;125149;1091;64405;-92
2021/07/27 09:30:50;;;;;;;18.35;16.70;;;;;;;26.85;72.30;98836.49;125175;1093;64287;-91
2021/07/27 09:33:17;;;;;;;17.63;15.93;;;;;;;27.04;72.86;98844.89;125139;1092;64354;-83
2021/07/27 09:35:45;;;;;;;18.40;16.67;;;;;;;27.14;71.59;98848.03;125182;1092;64267;-79
2021/07/27 09:38:15;;;;;;;17.33;15.90;;;;;;;27.16;71.58;98848.66;125056;1093;64222;-79
2021/07/27 09:40:51;;;;;;;19.03;17.50;;;;;;;27.24;70.81;98853.10;125054;1093;64381;-79
2021/07/27 09:43:22;;;;;;;17.47;15.93;;;;;;;27.29;70.99;98845.09;125034;1093;64293;-79
2021/07/27 09:45:51;;;;;;;15.93;14.43;;;;;;;27.61;71.31;98837.83;125076;1092;64265;-79
2021/07/27 09:48:23;;;;;;;15.55;14.15;;;;;;;28.21;70.61;98840.30;125059;1093;64295;-79
2021/07/27 09:50:52;;;;;;;14.87;13.50;;;;;;;28.52;70.27;98844.13;125062;1092;64399;-79
2021/07/27 09:53:20;;;;;;;13.75;12.45;;;;;;;28.59;69.40;98845.73;124979;1093;64238;-79
2021/07/27 09:55:48;;;;;;;24.43;14.70;;;;;;;28.72;69.67;98841.21;125015;1093;64264;-79
2021/07/27 09:58:17;;;;;;;18.93;17.23;;;;;;;28.54;67.50;98842.84;125032;1093;64280;-79
2021/07/27 10:01:18;;;;;;;16.83;15.23;;;;;;;28.41;68.31;98851.97;125040;1093;64274;-79
2021/07/27 10:03:59;;;;;;;16.93;15.30;;;;;;;28.32;68.44;98853.28;125419;1093;64175;-88
2021/07/27 10:06:28;;;;;;;15.40;14.10;;;;;;;28.09;67.54;98848.36;125248;1093;64364;-93
2021/07/27 10:08:56;;;;;;;;;;;;;;;27.76;66.98;98843.04;126301;1091;64274;-76
2021/07/27 10:12:08;;;;;;;17.80;16.20;;;;;;;27.59;68.59;98848.14;124979;1093;64290;-92
2021/07/27 10:14:41;;;;;;;16.70;15.20;;;;;;;27.42;68.19;98836.84;125069;1093;64229;-88
2021/07/27 10:17:09;;;;;;;16.07;14.47;;;;;;;27.51;69.38;98837.44;124995;1092;64271;-82
2021/07/27 10:19:38;;;;;;;17.40;16.00;;;;;;;27.63;69.16;98837.63;125085;1093;64357;-85
2021/07/27 10:22:11;;;;;;;17.63;16.13;;;;;;;27.46;68.96;98832.63;125146;1093;64188;-78
2021/07/27 10:24:50;;;;;;;16.00;14.70;;;;;;;27.61;69.28;98828.77;124986;1092;64227;-78
2021/07/27 10:27:24;;;;;;;15.57;14.37;;;;;;;27.82;69.94;98828.50;125049;1093;64612;-78
2021/07/27 10:29:52;;;;;;;15.63;14.23;;;;;;;27.85;69.57;98828.05;125045;1092;64306;-78
2021/07/27 10:32:22;;;;;;;13.73;12.40;;;;;;;27.94;69.00;98829.50;125019;1093;64379;-78
2021/07/27 10:34:52;;;;;;;;;;;;;;;28.01;67.39;98827.54;124912;1093;64294;-79
2021/07/27 10:37:19;;;;;;;15.40;13.90;;;;;;;27.99;68.07;98845.28;125046;1092;64322;-79
2021/07/27 10:39:57;;;;;;;13.33;12.23;;;;;;;27.96;68.67;98838.34;125031;1093;64271;-78
2021/07/27 10:42:25;;;;;;;13.20;12.20;;;;;;;28.07;68.37;98838.68;125049;1092;64274;-79
2021/07/27 10:44:53;;;;;;;13.60;12.50;;;;;;;28.08;67.06;98843.13;125031;1093;64165;-79
2021/07/27 10:47:26;;;;;;;13.57;12.47;;;;;;;28.13;68.01;98835.08;125033;1093;64245;-79
2021/07/27 10:50:00;;;;;;;12.80;11.87;;;;;;;28.19;67.66;98840.50;124915;1093;64191;-79
2021/07/27 10:52:29;;;;;;;13.37;12.23;;;;;;;28.33;67.56;98838.54;124870;1093;64195;-79
2021/07/27 10:54:58;;;;;;;13.15;12.05;;;;;;;28.48;67.28;98837.40;125006;1093;64245;-79
2021/07/27 10:57:35;;;;;;;14.30;12.95;;;;;;;28.53;66.40;98824.70;125090;1093;64373;-79
2021/07/27 11:00:04;;;;;;;14.00;12.90;;;;;;;28.42;65.71;98831.71;125021;1091;64291;-79
2021/07/27 11:02:32;;;;;;;13.00;11.77;;;;;;;28.25;65.65;98822.33;125044;1093;64274;-79
2021/07/27 11:05:00;;;;;;;11.93;10.93;;;;;;;28.28;66.39;98810.09;125014;1093;64287;-79
2021/07/27 11:07:32;;;;;;;12.80;11.77;;;;;;;28.36;65.87;98810.68;125053;1093;64216;-79
2021/07/27 11:10:00;;;;;;;12.00;10.97;;;;;;;28.39;65.39;98818.45;124837;1093;64223;-78
2021/07/27 11:12:36;;;;;;;12.10;11.00;;;;;;;28.32;64.83;98814.91;124863;1093;64374;-78
2021/07/27 11:15:24;;;;;;;12.40;11.20;;;;;;;28.24;64.41;98807.80;125126;1093;64297;-78
2021/07/27 11:18:02;;;;;;;11.97;10.67;;;;;;;28.35;65.89;98814.47;125093;1093;64197;-78
2021/07/27 11:20:38;;;;;;;10.90;10.00;;;;;;;28.47;65.23;98819.28;125055;1091;64197;-78
2021/07/27 11:23:18;;;;;;;12.40;11.40;;;;;;;28.53;64.90;98819.21;125042;1093;64217;-79
2021/07/27 11:25:53;;;;;;;10.67;9.77;;;;;;;28.64;65.71;98810.25;125065;1093;64271;-78
2021/07/27 11:28:21;;;;;;;11.13;9.97;;;;;;;28.71;64.88;98810.21;124878;1093;64316;-79
2021/07/27 11:30:48;;;;;;;11.75;10.65;;;;;;;28.66;64.64;98805.39;125064;1093;64300;-79
2021/07/27 11:33:20;;;;;;;11.60;10.60;;;;;;;28.60;64.64;98813.69;125064;1092;64165;-79
2021/07/27 11:35:52;;;;;;;11.73;10.60;;;;;;;28.68;65.20;98816.15;125082;1093;64303;-79
2021/07/27 11:38:20;;;;;;;11.37;10.47;;;;;;;28.71;63.76;98815.70;125026;1092;64437;-79
2021/07/27 11:41:02;;;;;;;10.53;9.63;;;;;;;28.75;63.78;98808.67;125073;1093;64657;-79
2021/07/27 11:43:35;;;;;;;11.30;10.40;;;;;;;28.70;63.85;98802.20;125041;1092;64271;-79
2021/07/27 11:46:15;;;;;;;11.23;10.23;;;;;;;28.76;64.64;98804.89;124989;1093;64194;-79
2021/07/27 11:48:44;;;;;;;10.73;9.67;;;;;;;28.79;63.54;98798.11;124956;1093;64287;-79
2021/07/27 11:51:11;;;;;;;10.70;9.80;;;;;;;28.74;64.12;98793.30;125036;1092;64301;-79
2021/07/27 11:53:40;;;;;;;10.90;9.90;;;;;;;28.76;64.34;98790.34;125015;1093;64274;-79
2021/07/27 11:56:15;;;;;;;10.90;9.90;;;;;;;28.79;62.86;98787.14;125029;1093;64188;-79
2021/07/27 11:58:46;;;;;;;10.97;9.97;;;;;;;28.79;63.80;98792.63;125048;1093;64313;-79
2021/07/27 12:01:15;;;;;;;10.87;9.77;;;;;;;28.76;63.68;98791.17;124899;1093;64199;-79
2021/07/27 12:03:42;;;;;;;10.77;9.77;;;;;;;28.84;63.34;98779.08;125049;1093;64427;-79
2021/07/27 12:06:15;;;;;;;10.00;9.13;;;;;;;28.87;63.78;98786.85;125043;1093;64657;-79
2021/07/27 12:08:42;;;;;;;10.35;9.45;;;;;;;28.94;63.61;98781.28;125007;1093;64372;-79
2021/07/27 12:11:10;;;;;;;9.93;9.13;;;;;;;29.00;62.91;98778.48;125024;1093;64290;-79
2021/07/27 12:13:38;;;;;;;9.80;9.00;;;;;;;28.99;62.37;98774.08;125064;1093;64282;-79
2021/07/27 12:16:05;;;;;;;11.10;9.93;;;;;;;29.07;62.45;98770.22;125049;1093;64290;-79
2021/07/27 12:18:33;;;;;;;10.10;9.30;;;;;;;29.06;62.30;98765.78;125013;1093;64315;-79
2021/07/27 12:21:00;;;;;;;11.10;10.07;;;;;;;29.05;62.51;98758.63;124849;1093;64753;-79
2021/07/27 12:23:27;;;;;;;9.97;9.03;;;;;;;29.13;62.41;98754.75;125002;1092;64245;-79
2021/07/27 12:25:54;;;;;;;9.37;8.30;;;;;;;29.17;60.57;98756.78;124952;1093;64225;-79
2021/07/27 12:28:22;;;;;;;10.70;9.70;;;;;;;29.03;60.46;98750.58;124861;1093;64386;-79
2021/07/27 12:30:49;;;;;;;10.20;9.17;;;;;;;29.08;62.16;98749.94;124974;1093;64808;-79
2021/07/27 12:33:16;;;;;;;9.30;8.50;;;;;;;29.13;61.15;98750.09;125009;1093;64274;-79
2021/07/27 12:35:43;;;;;;;9.10;8.30;;;;;;;29.13;61.26;98741.86;124817;1093;64297;-79
2021/07/27 12:38:10;;;;;;;9.63;8.83;;;;;;;29.16;61.29;98744.14;124973;1093;64488;-79
2021/07/27 12:40:37;;;;;;;8.43;7.83;;;;;;;29.14;60.44;98740.78;124971;1092;64388;-79
2021/07/27 12:43:05;;;;;;;8.20;7.50;;;;;;;29.17;61.11;98740.31;125003;1092;64370;-79
2021/07/27 12:45:33;;;;;;;8.77;8.07;;;;;;;29.22;60.86;98734.98;125018;1092;64271;-79
2021/07/27 12:48:00;;;;;;;7.70;6.93;;;;;;;29.24;59.76;98734.77;125014;1093;64293;-79
2021/07/27 12:50:28;;;;;;;8.73;7.70;;;;;;;29.25;59.63;98741.91;124974;1093;64370;-79
2021/07/27 12:52:55;;;;;;;8.10;7.40;;;;;;;29.29;59.97;98738.48;125024;1093;64310;-83
2021/07/27 12:55:22;;;;;;;8.57;7.73;;;;;;;29.29;59.42;98738.48;125096;1092;64310;-79
2021/07/27 12:57:49;;;;;;;8.93;8.13;;;;;;;29.31;58.86;98741.84;125016;1093;64191;-79
2021/07/27 13:00:17;;;;;;;8.40;7.67;;;;;;;29.35;59.09;98746.88;125088;1093;64271;-79
2021/07/27 13:02:44;;;;;;;7.60;6.90;;;;;;;29.35;58.49;98747.70;124996;1091;64332;-79
2021/07/27 13:05:12;;;;;;;8.20;7.40;;;;;;;29.34;58.38;98748.78;125025;1093;64418;-79
2021/07/27 13:07:39;;;;;;;8.47;7.77;;;;;;;29.36;57.19;98746.66;125003;1093;64271;-79
2021/07/27 13:10:07;;;;;;;8.07;7.37;;;;;;;29.35;58.56;98746.88;125012;1093;64260;-79
2021/07/27 13:12:34;;;;;;;7.45;6.85;;;;;;;29.37;57.94;98748.32;125036;1091;64276;-79
2021/07/27 13:15:01;;;;;;;8.60;7.80;;;;;;;29.30;57.41;98750.30;125014;1092;64217;-79
2021/07/27 13:17:28;;;;;;;8.17;7.37;;;;;;;29.30;56.62;98751.13;125020;1093;64245;-79
2021/07/27 13:19:56;;;;;;;7.90;7.30;;;;;;;29.31;57.25;98746.51;125040;1092;64367;-79
2021/07/27 13:22:24;;;;;;;7.75;7.10;;;;;;;29.37;57.87;98742.00;125041;1093;64217;-79
2021/07/27 13:24:51;;;;;;;8.60;7.80;;;;;;;29.47;57.72;98743.13;124921;1093;64280;-79
2021/07/27 13:27:19;;;;;;;10.47;7.77;;;;;;;29.52;57.35;98742.44;124895;1093;64338;-79
2021/07/27 13:29:46;;;;;;;8.40;7.70;;;;;;;29.51;56.68;98747.06;125020;1092;64159;-79
2021/07/27 13:32:13;;;;;;;8.35;7.55;;;;;;;29.48;56.89;98749.45;124909;1092;64309;-79
2021/07/27 13:34:40;;;;;;;7.83;7.13;;;;;;;29.49;56.06;98740.13;124929;1093;64390;-79
2021/07/27 13:37:11;;;;;;;6.87;6.27;;;;;;;29.53;56.35;98742.19;124999;1092;64191;-79
2021/07/27 13:39:38;;;;;;;7.03;6.40;;;;;;;29.61;55.73;98745.69;124878;1093;64184;-79
2021/07/27 13:42:05;;;;;;;6.97;6.47;;;;;;;29.57;54.75;98748.08;125011;1093;64230;-79
2021/07/27 13:44:32;;;;;;;7.07;6.53;;;;;;;29.53;54.88;98749.59;125000;1093;64289;-79
2021/07/27 13:47:00;;;;;;;7.77;6.20;;;;;;;29.53;55.00;98747.68;125099;1093;64357;-79
2021/07/27 13:49:28;;;;;;;7.23;6.57;;;;;;;29.54;54.80;98754.00;124892;1093;64284;-79
2021/07/27 13:51:55;;;;;;;8.00;6.73;;;;;;;29.56;55.13;98749.13;125015;1093;64172;-79
2021/07/27 13:54:24;;;;;;;7.70;7.00;;;;;;;29.67;55.24;98745.61;125004;1093;64229;-79
2021/07/27 13:56:51;;;;;;;7.65;7.05;;;;;;;29.69;54.38;98737.98;124911;1093;64275;-78
2021/07/27 13:59:18;;;;;;;8.07;6.80;;;;;;;29.68;54.75;98735.49;125029;1092;64226;-79
2021/07/27 14:01:46;;;;;;;7.03;6.43;;;;;;;29.74;55.05;98734.55;125010;1093;64790;-79
2021/07/27 14:04:14;;;;;;;7.93;7.33;;;;;;;29.75;55.18;98726.09;125020;1093;64268;-79
2021/07/27 14:06:41;;;;;;;7.57;7.00;;;;;;;29.68;54.59;98728.08;125043;1092;64284;-79
2021/07/27 14:09:10;;;;;;;7.07;6.37;;;;;;;29.67;54.54;98731.05;125032;1093;64271;-79
2021/07/27 14:11:37;;;;;;;9.63;7.30;;;;;;;29.62;54.68;98715.27;124980;1093;64274;-79
2021/07/27 14:14:05;;;;;;;7.47;6.87;;;;;;;29.52;54.86;98712.23;124970;1092;64188;-79
2021/07/27 14:16:33;;;;;;;8.97;7.80;;;;;;;29.53;54.67;98722.13;124969;1093;64293;-79
2021/07/27 14:19:02;;;;;;;7.90;6.73;;;;;;;29.58;54.61;98716.78;125087;1093;64268;-79
2021/07/27 14:21:30;;;;;;;8.00;7.40;;;;;;;29.69;54.98;98712.44;124897;1093;64188;-79
2021/07/27 14:23:57;;;;;;;7.47;6.77;;;;;;;29.78;54.68;98705.55;125017;1093;64223;-79
2021/07/27 14:26:25;;;;;;;7.83;7.23;;;;;;;29.87;54.66;98711.54;125137;1093;64271;-79
2021/07/27 14:28:52;;;;;;;8.20;7.50;;;;;;;29.97;54.61;98709.06;125089;1093;64402;-79
2021/07/27 14:31:20;;;;;;;7.75;7.10;;;;;;;30.03;54.32;98701.78;124993;1093;64415;-79
2021/07/27 14:33:47;;;;;;;7.77;7.03;;;;;;;30.12;54.88;98692.10;125006;1093;64271;-79
2021/07/27 14:36:14;;;;;;;7.63;7.03;;;;;;;30.22;54.09;98691.52;125042;1093;64274;-79
2021/07/27 14:38:41;;;;;;;7.40;6.70;;;;;;;30.24;54.13;98692.16;125017;1093;64271;-79
2021/07/27 14:41:10;;;;;;;8.37;7.63;;;;;;;30.25;53.55;98693.83;125002;1093;64367;-79
2021/07/27 14:43:38;;;;;;;8.00;7.30;;;;;;;30.24;53.60;98690.25;125085;1093;64214;-79
2021/07/27 14:46:06;;;;;;;8.20;7.43;;;;;;;30.27;53.47;98688.94;125042;1093;64263;-78
2021/07/27 14:48:35;;;;;;;8.63;8.00;;;;;;;30.28;52.41;98688.71;124997;1093;64296;-79
2021/07/27 14:51:02;;;;;;;8.15;7.20;;;;;;;30.29;52.20;98682.13;125061;1093;64383;-78
2021/07/27 14:53:30;;;;;;;9.25;7.35;;;;;;;30.25;52.63;98689.16;125015;1093;64277;-78
2021/07/27 14:55:57;;;;;;;7.73;7.13;;;;;;;30.23;52.48;98688.59;125026;1093;64263;-78
2021/07/27 14:58:24;;;;;;;9.37;7.57;;;;;;;30.18;53.18;98683.76;125012;1093;64340;-78
2021/07/27 15:00:51;;;;;;;7.80;7.00;;;;;;;30.22;51.62;98691.52;125032;1093;64268;-78
2021/07/27 15:03:18;;;;;;;8.03;7.23;;;;;;;30.21;52.11;98692.61;124903;1093;64354;-78
2021/07/27 15:05:45;;;;;;;7.70;6.90;;;;;;;30.13;52.31;98691.88;124994;1092;64308;-77
2021/07/27 15:08:13;;;;;;;6.93;6.43;;;;;;;30.03;51.27;98690.78;125017;1093;64248;-77
2021/07/27 15:10:40;;;;;;;7.00;6.33;;;;;;;29.85;50.68;98694.45;124891;1093;64463;-78
2021/07/27 15:13:07;;;;;;;7.80;7.00;;;;;;;29.80;51.21;98686.90;125001;1093;64188;-78
2021/07/27 15:15:34;;;;;;;8.03;7.23;;;;;;;29.90;51.74;98689.09;124991;1093;64245;-79
2021/07/27 15:18:01;;;;;;;7.43;6.73;;;;;;;30.00;51.84;98683.02;124973;1093;64267;-79
2021/07/27 15:20:28;;;;;;;7.57;6.87;;;;;;;30.06;51.32;98691.14;124884;1092;64280;-79
2021/07/27 15:22:55;;;;;;;7.03;6.53;;;;;;;30.07;51.20;98690.09;125000;1093;64284;-78
2021/07/27 15:25:23;;;;;;;7.40;6.80;;;;;;;30.13;51.72;98683.63;125041;1093;64298;-78
2021/07/27 15:27:50;;;;;;;7.47;6.80;;;;;;;30.16;51.33;98683.15;125043;1093;64191;-78
2021/07/27 15:30:17;;;;;;;7.80;7.15;;;;;;;30.13;51.31;98678.13;125015;1093;64245;-78
2021/07/27 15:32:45;;;;;;;7.50;6.80;;;;;;;30.14;51.86;98673.47;125031;1093;64312;-78
2021/07/27 15:35:13;;;;;;;7.77;6.87;;;;;;;30.17;52.19;98675.73;124996;1093;64275;-78
2021/07/27 15:37:40;;;;;;;7.90;7.20;;;;;;;30.15;51.37;98672.41;124899;1093;64283;-79
2021/07/27 15:40:08;;;;;;;8.10;7.30;;;;;;;30.13;51.75;98672.64;124932;1091;64290;-79
2021/07/27 15:42:35;;;;;;;7.60;6.90;;;;;;;30.09;51.64;98676.92;125100;1093;64352;-79
2021/07/27 15:45:04;;;;;;;7.77;7.17;;;;;;;30.11;51.83;98669.28;125007;1093;64273;-79
2021/07/27 15:47:31;;;;;;;7.13;6.53;;;;;;;30.14;51.45;98674.30;124950;1093;64257;-78
2021/07/27 15:49:59;;;;;;;7.90;6.35;;;;;;;30.11;51.09;98674.78;125005;1093;64216;-78
2021/07/27 15:52:26;;;;;;;7.17;6.57;;;;;;;30.09;51.30;98674.17;125021;1092;64191;-78
2021/07/27 15:54:53;;;;;;;7.20;6.70;;;;;;;30.13;50.94;98663.56;124971;1092;64270;-78
2021/07/27 15:57:20;;;;;;;7.13;6.43;;;;;;;30.14;50.84;98670.72;125002;1092;64244;-78
2021/07/27 15:59:47;;;;;;;7.50;6.90;;;;;;;30.15;50.73;98673.25;124859;1093;64242;-79
2021/07/27 16:02:15;;;;;;;7.10;6.50;;;;;;;30.14;50.38;98671.55;125039;1093;64268;-78
2021/07/27 16:04:42;;;;;;;7.60;6.90;;;;;;;30.12;50.73;98672.86;125028;1092;64219;-78
2021/07/27 16:07:09;;;;;;;8.03;7.33;;;;;;;30.14;51.38;98671.55;124858;1093;64332;-79
2021/07/27 16:09:37;;;;;;;7.87;7.20;;;;;;;30.17;51.48;98683.98;124984;1093;64351;-79
2021/07/27 16:12:04;;;;;;;7.93;7.13;;;;;;;30.16;51.30;98680.41;124860;1092;64226;-79
2021/07/27 16:14:32;;;;;;;7.65;7.00;;;;;;;30.14;51.09;98674.30;124883;1093;64258;-79
2021/07/27 16:17:00;;;;;;;7.47;6.87;;;;;;;30.11;50.72;98677.53;125023;1092;64310;-78
2021/07/27 16:19:27;;;;;;;7.65;7.05;;;;;;;30.08;50.39;98669.77;125025;1093;64268;-78
2021/07/27 16:21:54;;;;;;;6.70;6.10;;;;;;;30.08;50.38;98671.68;124992;1093;64188;-79